UEEEUHBB

Guest
Details From UEEE - Yakutsk
To UHBB - IGNATYEVO
Flight Number -
Tags decoded
Created
Modified
Stats Distance 763 nm / 1,412 km
Max Altitude 0 ft / 0 m
Waypoints 11
Social Downloads 1
Likes 0
Share VATSIM

Download

Looking for another format? Having issues loading an existing format? Contact us
Advertisement - Login to hide

Notes

Requested: UEEE TIRSI G495 ARDIB W109 NALEB G494 SIMLI UHBB Unmatched points: G495 W109

Route

UEEE TIRSI ARDIB NALEB G494 SIMLI UHBB

ID Type Via Altitude Latitude Longitude Leg Dist Tot Dist Heading (true) Name
O UEEE APT - 0 ft / 0 m 62.09325˚ 129.77068˚ - 0 nm - Yakutsk
TIRSI FIX - 0 ft / 0 m 60.95889˚ 128.24111˚ 80 nm 80 nm 213° / 212° -
ARDIB FIX - 0 ft / 0 m 58.60056˚ 125.40111˚ 165 nm 246 nm 212° / 210° -
NALEB FIX - 0 ft / 0 m 53.69222˚ 127.08944˚ 300 nm 546 nm 168° / 170° -
SOVIK FIX G494 (AWY-LO) 0 ft / 0 m 52.68194˚ 127.43944˚ 61 nm 608 nm 168° / 168° -
NINON FIX G494 (AWY-LO) 0 ft / 0 m 52.00028˚ 127.66750˚ 41 nm 650 nm 168° / 169° -
REPSA FIX G494 (AWY-HI) 0 ft / 0 m 51.76000˚ 127.66667˚ 14 nm 664 nm 180° / 180° -
BANIR FIX G494 (AWY-LO) 0 ft / 0 m 51.32528˚ 127.66750˚ 26 nm 690 nm 180° / 180° -
BLG VOR G494 (AWY-HI) 0 ft / 0 m 50.39361˚ 127.42750˚ 56 nm 747 nm 189° / 189° BLAGOVESHCHENSK Ignatyevo VOR-
SIMLI FIX G494 (AWY-HI) 0 ft / 0 m 50.29000˚ 127.36833˚ 6 nm 754 nm 200° / 200° -
O UHBB APT - 0 ft / 0 m 50.42539˚ 127.41249˚ 8 nm 762 nm 12° / 12° IGNATYEVO

Altitude Profile

Advertisement - Login to hide

Weather


0- 5 10 15 20 25 30 35+ Temperature / ° C

Clouds and Precipitation
Forecast for 2017-12-13 12:00 UTC. Updated a minute ago

Ground ~20,000 ft ~40,000 ft Winds

UEEE

Details ICAO UEEE (YKS)
Name Yakutsk
Region Russia
Timezone Asia/Yakutsk (UTC+9.0)
Stats Elevation 325 ft / 99 m (AMSL)
Location 62.093249° 129.770678°
Runways 2
Magnetic Variation 15.673° W

METAR

UEEE 131100Z 02002MPS 1300 1000NE R23L/2000N BR NSC M41/M46 Q1036 R23L/490150 NOSIG RMK QFE768

Decode

TAF

TAF UEEE 130800Z 1309/1415 VRB01MPS 0700 FG VV004 TXM40/1310Z TNM42/1309Z TEMPO 1309/1402 0300 FG VV002

Decode

Departure Runways

ID Width Length Bearing (true) Bearing (mag) Surface Threshold Offset Overrun Length
05L 161 ft / 49 m 8,171 ft / 2,491 m 29.51° 45.18° Concrete 0 ft / 0 m 154 ft / 47 m
05R 197 ft / 60 m 11,120 ft / 3,389 m 36.88° 52.55° Asphalt 0 ft / 0 m 226 ft / 69 m
23L 197 ft / 60 m 11,120 ft / 3,389 m 216.92° 232.59° Asphalt 0 ft / 0 m 226 ft / 69 m
23R 161 ft / 49 m 8,171 ft / 2,491 m 209.53° 225.20° Concrete 3,399 ft / 1,036 m 164 ft / 50 m

UHBB

Details ICAO UHBB (BQS)
Name IGNATYEVO
Region Russia
Timezone Asia/Yakutsk (UTC+9.0)
Stats Elevation 638 ft / 194 m (AMSL)
Location 50.425395° 127.412489°
Runways 1
Magnetic Variation 12.262° W

METAR

UHBB 131100Z 31002MPS CAVOK M16/M25 Q1029 R36/810260 NOSIG RMK QFE754/1006

Decode

TAF

TAF UHBB 130740Z 1309/1409 28003MPS CAVOK= TAF UHSS 130800Z 1309/1415 01009G14MPS 1000 SHSN BLSN BKN004 BKN020CB OVC100 TEMPO 1309/1324 0400 +SHSN BLSN BKN002 BKN020CB FM140000 33004MPS 9999 BKN030CB

Decode

Destination Runways

ID Width Length Bearing (true) Bearing (mag) Surface Threshold Offset Overrun Length
18 148 ft / 45 m 9,254 ft / 2,821 m 168.30° 180.56° Asphalt 0 ft / 0 m 145 ft / 44 m
36 148 ft / 45 m 9,254 ft / 2,821 m 348.30° 0.56° Asphalt 0 ft / 0 m 160 ft / 49 m

Approach Navaids

Runway Type Ident Frequency Range Bearing (true) Bearing (mag) Slope Elevation
36 Localiser ILZ 108.70 MHz 18 nm / 33 km 348.31° 0.57° - 638 ft / 194 m (AMSL)
36 Glidescope ILZ 108.70 MHz 10 nm / 19 km 348.30° 0.56° 3.05° 638 ft / 194 m (AMSL)

Popular Alternatives